createdAt,value
2024-02-26T00:01:52.381Z,7.87
2024-02-26T00:04:55.364Z,7.66
2024-02-26T00:07:57.542Z,7.73
2024-02-26T00:11:00.204Z,7.58
2024-02-26T00:14:02.866Z,7.60
2024-02-26T00:17:05.461Z,7.44
2024-02-26T00:20:11.212Z,7.61
2024-02-26T00:23:16.590Z,7.46
2024-02-26T00:26:18.690Z,7.37
2024-02-26T00:29:21.468Z,7.46
2024-02-26T00:32:23.716Z,7.37
2024-02-26T00:35:26.344Z,7.44
2024-02-26T00:38:28.572Z,7.39
2024-02-26T00:41:31.826Z,7.30
2024-02-26T00:44:34.057Z,7.37
2024-02-26T00:47:36.809Z,7.12
2024-02-26T00:50:39.329Z,7.31
2024-02-26T00:53:42.238Z,7.54
2024-02-26T00:56:44.400Z,7.64
2024-02-26T00:59:47.057Z,7.44
2024-02-26T01:02:49.529Z,7.36
2024-02-26T01:05:55.784Z,7.34
2024-02-26T01:08:59.947Z,7.43
2024-02-26T01:12:04.135Z,7.47
2024-02-26T01:15:07.147Z,7.50
2024-02-26T01:18:10.723Z,7.68
2024-02-26T01:21:13.630Z,7.40
2024-02-26T01:24:16.999Z,7.50
2024-02-26T01:27:19.436Z,7.54
2024-02-26T01:30:22.744Z,7.56
2024-02-26T01:33:25.380Z,7.43
2024-02-26T01:36:28.225Z,7.56
2024-02-26T01:39:31.512Z,7.46
2024-02-26T01:42:34.508Z,7.19
2024-02-26T01:45:36.758Z,7.23
2024-02-26T01:48:39.468Z,7.39
2024-02-26T01:51:43.302Z,7.54
2024-02-26T01:54:47.532Z,7.43
2024-02-26T01:57:53.261Z,7.27
2024-02-26T02:00:55.906Z,7.06
2024-02-26T02:04:00.446Z,7.05
2024-02-26T02:07:03.881Z,7.06
2024-02-26T02:10:06.954Z,7.02
2024-02-26T02:13:09.715Z,7.02
2024-02-26T02:16:12.131Z,6.92
2024-02-26T02:19:15.090Z,6.85
2024-02-26T02:22:17.253Z,6.91
2024-02-26T02:25:20.085Z,6.88
2024-02-26T02:28:23.443Z,6.91
2024-02-26T02:31:26.519Z,6.78
2024-02-26T02:34:30.823Z,7.00
2024-02-26T02:37:33.299Z,6.79
2024-02-26T02:40:35.679Z,6.85
2024-02-26T02:43:38.158Z,6.78
2024-02-26T02:46:40.576Z,6.71
2024-02-26T02:49:43.180Z,6.64
2024-02-26T02:52:45.464Z,6.64
2024-02-26T02:55:48.383Z,6.75
2024-02-26T02:58:50.610Z,6.74
2024-02-26T03:01:53.812Z,6.55
2024-02-26T03:04:56.310Z,6.58
2024-02-26T03:07:59.216Z,6.62
2024-02-26T03:11:01.592Z,6.78
2024-02-26T03:14:04.343Z,6.71
2024-02-26T03:17:06.579Z,6.75
2024-02-26T03:20:10.799Z,6.64
2024-02-26T03:23:16.118Z,6.81
2024-02-26T03:26:18.687Z,6.65
2024-02-26T03:29:20.897Z,6.69
2024-02-26T03:32:23.657Z,6.78
2024-02-26T03:35:25.985Z,6.93
2024-02-26T03:38:30.135Z,6.82
2024-02-26T03:41:33.695Z,6.86
2024-02-26T03:44:36.336Z,6.68
2024-02-26T03:47:42.290Z,7.17
2024-02-26T03:50:45.029Z,6.71
2024-02-26T03:53:47.586Z,6.74
2024-02-26T03:56:50.448Z,6.58
2024-02-26T03:59:52.751Z,6.49
2024-02-26T04:02:55.317Z,6.55
2024-02-26T04:05:57.910Z,6.48
2024-02-26T04:09:00.690Z,6.75
2024-02-26T04:12:03.092Z,6.64
2024-02-26T04:15:06.478Z,6.71
2024-02-26T04:18:09.854Z,6.65
2024-02-26T04:21:12.585Z,6.84
2024-02-26T04:24:14.759Z,6.52
2024-02-26T04:27:18.158Z,6.64
2024-02-26T04:30:20.548Z,6.68
2024-02-26T04:33:23.912Z,6.84
2024-02-26T04:36:27.498Z,7.27
2024-02-26T04:39:30.092Z,6.55
2024-02-26T04:42:32.690Z,6.71
2024-02-26T04:45:35.681Z,6.64
2024-02-26T04:48:38.054Z,6.69
2024-02-26T04:51:41.129Z,6.88
2024-02-26T04:54:43.621Z,6.81
2024-02-26T04:57:46.440Z,6.91
2024-02-26T05:00:48.770Z,6.92
2024-02-26T05:03:51.488Z,6.86
2024-02-26T05:06:54.909Z,6.52
2024-02-26T05:09:58.570Z,6.82
2024-02-26T05:13:00.765Z,6.82
2024-02-26T05:16:04.232Z,6.65
2024-02-26T05:19:07.674Z,6.86
2024-02-26T05:22:10.462Z,6.71
2024-02-26T05:25:12.684Z,6.58
2024-02-26T05:28:16.841Z,6.52
2024-02-26T05:31:20.045Z,6.52
2024-02-26T05:34:23.651Z,6.46
2024-02-26T05:37:25.893Z,6.48
2024-02-26T05:40:28.365Z,6.35
2024-02-26T05:43:31.078Z,6.31
2024-02-26T05:46:35.824Z,6.14
2024-02-26T05:49:37.961Z,6.45
2024-02-26T05:52:42.349Z,6.32
2024-02-26T05:55:44.414Z,6.37
2024-02-26T05:58:47.455Z,6.27
2024-02-26T06:01:49.614Z,6.18
2024-02-26T06:04:52.351Z,6.16
2024-02-26T06:07:54.469Z,6.31
2024-02-26T06:10:57.052Z,6.25
2024-02-26T06:14:02.351Z,5.90
2024-02-26T06:17:06.708Z,6.06
2024-02-26T06:20:13.393Z,5.97
2024-02-26T06:23:16.384Z,6.10
2024-02-26T06:26:19.320Z,5.99
2024-02-26T06:29:22.046Z,6.13
2024-02-26T06:32:24.482Z,6.01
2024-02-26T06:35:27.437Z,5.81
2024-02-26T06:38:29.599Z,5.83
2024-02-26T06:41:32.532Z,5.87
2024-02-26T06:44:35.058Z,5.96
2024-02-26T06:47:38.241Z,5.94
2024-02-26T06:50:40.514Z,5.91
2024-02-26T06:53:44.152Z,5.81
2024-02-26T06:56:48.509Z,6.11
2024-02-26T06:59:51.390Z,5.83
2024-02-26T07:02:53.670Z,5.83
2024-02-26T07:05:56.557Z,6.01
2024-02-26T07:08:58.876Z,5.94
2024-02-26T07:12:01.975Z,5.90
2024-02-26T07:15:04.804Z,5.93
2024-02-26T07:18:07.606Z,6.01
2024-02-26T07:21:10.129Z,6.24
2024-02-26T07:24:13.039Z,5.93
2024-02-26T07:27:15.410Z,5.94
2024-02-26T07:30:18.228Z,5.94
2024-02-26T07:33:20.927Z,6.01
2024-02-26T07:36:23.835Z,6.17
2024-02-26T07:39:26.111Z,6.20
2024-02-26T07:42:28.710Z,6.21
2024-02-26T07:45:31.007Z,6.11
2024-02-26T07:48:33.582Z,6.01
2024-02-26T07:51:36.408Z,6.11
2024-02-26T07:54:39.542Z,6.21
2024-02-26T07:57:45.226Z,5.99
2024-02-26T08:00:48.128Z,5.94
2024-02-26T08:03:50.333Z,6.04
2024-02-26T08:06:53.359Z,6.14
2024-02-26T08:09:55.849Z,6.00
2024-02-26T08:13:06.433Z,6.01
2024-02-26T08:16:09.095Z,6.17
2024-02-26T08:19:14.655Z,6.06
2024-02-26T08:22:18.464Z,6.16
2024-02-26T08:25:21.844Z,6.07
2024-02-26T08:28:24.526Z,6.42
2024-02-26T08:31:28.376Z,6.09
2024-02-26T08:34:30.762Z,6.28
2024-02-26T08:37:33.516Z,6.13
2024-02-26T08:40:35.646Z,6.24
2024-02-26T08:43:38.474Z,6.13
2024-02-26T08:46:40.648Z,6.07
2024-02-26T08:49:47.179Z,6.09
2024-02-26T08:52:52.098Z,6.16
2024-02-26T08:55:54.577Z,6.17
2024-02-26T08:58:58.786Z,6.17
2024-02-26T09:02:01.301Z,6.31
2024-02-26T09:05:03.894Z,6.28
2024-02-26T09:08:06.983Z,6.46
2024-02-26T09:11:09.614Z,6.48
2024-02-26T09:14:12.299Z,6.45
2024-02-26T09:17:14.883Z,6.35
2024-02-26T09:20:21.615Z,6.45
2024-02-26T09:23:23.901Z,6.44
2024-02-26T09:26:26.737Z,6.40
2024-02-26T09:29:28.985Z,6.30
2024-02-26T09:32:31.794Z,6.28
2024-02-26T09:35:33.929Z,6.46
2024-02-26T09:38:49.255Z,6.37
2024-02-26T09:41:59.077Z,6.37
2024-02-26T09:45:05.005Z,6.40
2024-02-26T09:48:10.246Z,6.44
2024-02-26T09:51:13.925Z,6.38
2024-02-26T09:54:17.541Z,6.40
2024-02-26T09:57:20.772Z,6.44
2024-02-26T10:00:23.944Z,6.59
2024-02-26T10:03:32.258Z,6.74
2024-02-26T10:06:35.491Z,6.64
2024-02-26T10:09:38.571Z,6.49
2024-02-26T10:12:40.818Z,6.64
2024-02-26T10:15:43.734Z,6.59
2024-02-26T10:18:58.973Z,6.58
2024-02-26T10:22:05.792Z,6.56
2024-02-26T10:25:09.667Z,6.45
2024-02-26T10:28:12.192Z,6.67
2024-02-26T10:31:16.979Z,6.51
2024-02-26T10:34:20.560Z,6.51
2024-02-26T10:37:25.927Z,6.61
2024-02-26T10:40:29.650Z,6.59
2024-02-26T10:43:32.051Z,6.67
2024-02-26T10:46:36.327Z,6.69
2024-02-26T10:49:39.418Z,6.59
2024-02-26T10:52:43.919Z,6.74
2024-02-26T10:55:51.092Z,6.65
2024-02-26T10:58:53.883Z,6.72
2024-02-26T11:01:57.013Z,6.85
2024-02-26T11:05:00.226Z,6.68
2024-02-26T11:08:04.099Z,6.72
2024-02-26T11:11:07.290Z,6.67
2024-02-26T11:14:11.351Z,6.79
2024-02-26T11:17:18.220Z,6.65
2024-02-26T11:20:21.241Z,6.82
2024-02-26T11:23:24.312Z,6.64
2024-02-26T11:26:29.011Z,6.58
2024-02-26T11:29:38.818Z,6.75
2024-02-26T11:32:41.063Z,6.81
2024-02-26T11:35:45.079Z,6.65
2024-02-26T11:38:50.226Z,6.88
2024-02-26T11:41:52.778Z,6.79
2024-02-26T11:44:55.380Z,6.88
2024-02-26T11:47:58.729Z,6.76
2024-02-26T11:51:00.924Z,6.81
2024-02-26T11:54:03.724Z,6.91
2024-02-26T11:57:06.076Z,6.82
2024-02-26T12:00:08.827Z,6.97
2024-02-26T12:03:13.552Z,7.13
2024-02-26T12:06:16.573Z,6.86
2024-02-26T12:09:45.474Z,6.86
2024-02-26T12:12:48.470Z,6.85
2024-02-26T12:15:53.446Z,6.92
2024-02-26T12:18:56.562Z,7.02
2024-02-26T12:21:59.036Z,7.24
2024-02-26T12:25:04.406Z,7.26
2024-02-26T12:28:06.796Z,7.17
2024-02-26T12:31:09.485Z,7.22
2024-02-26T12:34:12.419Z,7.16
2024-02-26T12:37:15.074Z,7.24
2024-02-26T12:40:17.639Z,7.29
2024-02-26T12:43:20.995Z,7.37
2024-02-26T12:46:23.607Z,7.27
2024-02-26T12:49:27.434Z,7.36
2024-02-26T12:52:32.813Z,7.47
2024-02-26T12:55:36.251Z,7.43
2024-02-26T12:58:41.027Z,7.17
2024-02-26T13:01:43.776Z,7.20
2024-02-26T13:04:46.402Z,7.09
2024-02-26T13:07:49.263Z,7.15
2024-02-26T13:10:52.688Z,7.34
2024-02-26T13:13:55.151Z,7.37
2024-02-26T13:16:58.289Z,7.34
2024-02-26T13:20:01.141Z,7.30
2024-02-26T13:23:13.083Z,7.36
2024-02-26T13:26:16.335Z,7.26
2024-02-26T13:29:20.392Z,7.31
2024-02-26T13:32:23.598Z,7.58
2024-02-26T13:35:25.855Z,7.39
2024-02-26T13:38:29.687Z,7.30
2024-02-26T13:41:32.020Z,7.47
2024-02-26T13:44:37.934Z,7.34
2024-02-26T13:47:42.000Z,7.39
2024-02-26T13:50:46.570Z,7.60
2024-02-26T13:53:49.832Z,7.37
2024-02-26T13:56:53.859Z,7.42
2024-02-26T13:59:57.280Z,7.63
2024-02-26T14:03:01.628Z,7.73
2024-02-26T14:06:04.912Z,7.80
2024-02-26T14:09:07.680Z,7.70
2024-02-26T14:12:09.959Z,7.68
2024-02-26T14:15:12.683Z,7.66
2024-02-26T14:18:14.910Z,7.67
2024-02-26T14:21:17.983Z,7.85
2024-02-26T14:24:20.166Z,7.71
2024-02-26T14:27:23.913Z,7.77
2024-02-26T14:30:27.975Z,7.87
2024-02-26T14:33:31.119Z,7.78
2024-02-26T14:36:33.432Z,7.63
2024-02-26T14:39:36.637Z,7.90
2024-02-26T14:42:39.364Z,7.90
2024-02-26T14:45:44.706Z,7.92
2024-02-26T14:48:47.042Z,7.85
2024-02-26T14:51:49.724Z,7.94
2024-02-26T14:54:52.919Z,7.87
2024-02-26T14:57:55.513Z,7.81
2024-02-26T15:00:58.034Z,7.82
2024-02-26T15:04:01.857Z,7.64
2024-02-26T15:07:05.077Z,7.57
2024-02-26T15:10:08.913Z,7.57
2024-02-26T15:13:11.224Z,7.53
2024-02-26T15:16:22.112Z,7.53
2024-02-26T15:19:24.524Z,7.66
2024-02-26T15:22:28.328Z,7.63
2024-02-26T15:25:31.188Z,7.90
2024-02-26T15:28:34.505Z,7.67
2024-02-26T15:31:37.550Z,7.47
2024-02-26T15:34:40.846Z,7.74
2024-02-26T15:37:43.274Z,7.67
2024-02-26T15:40:48.736Z,7.50
2024-02-26T15:43:51.808Z,7.63
2024-02-26T15:46:54.728Z,7.24
2024-02-26T15:49:57.938Z,7.61
2024-02-26T15:53:00.534Z,7.36
2024-02-26T15:56:02.688Z,7.68
2024-02-26T15:59:05.440Z,7.42
2024-02-26T16:02:07.903Z,7.29
2024-02-26T16:05:12.596Z,7.30
2024-02-26T16:08:23.430Z,7.23
2024-02-26T16:11:27.147Z,7.16
2024-02-26T16:14:52.166Z,7.12
2024-02-26T16:17:57.558Z,7.06
2024-02-26T16:21:00.351Z,7.31
2024-02-26T16:24:03.382Z,7.16
2024-02-26T16:27:05.766Z,7.17
2024-02-26T16:30:09.464Z,6.91
2024-02-26T16:33:11.802Z,6.92
2024-02-26T16:36:14.842Z,7.05
2024-02-26T16:39:18.459Z,7.27
2024-02-26T16:42:21.305Z,7.22
2024-02-26T16:45:24.552Z,7.15
2024-02-26T16:48:30.760Z,7.42
2024-02-26T16:51:33.090Z,7.09
2024-02-26T16:54:35.749Z,7.39
2024-02-26T16:57:38.010Z,7.34
2024-02-26T17:00:41.364Z,7.06
2024-02-26T17:03:43.755Z,6.85
2024-02-26T17:06:46.394Z,7.50
2024-02-26T17:09:48.748Z,7.30
2024-02-26T17:12:51.510Z,7.06
2024-02-26T17:15:54.136Z,6.88
2024-02-26T17:18:56.841Z,7.02
2024-02-26T17:21:59.143Z,7.31
2024-02-26T17:25:01.617Z,7.19
2024-02-26T17:28:04.847Z,7.05
2024-02-26T17:31:07.773Z,6.55
2024-02-26T17:34:12.147Z,6.69
2024-02-26T17:37:14.925Z,6.67
2024-02-26T17:40:17.224Z,6.84
2024-02-26T17:43:20.166Z,6.84
2024-02-26T17:46:22.255Z,6.92
2024-02-26T17:49:28.840Z,6.88
2024-02-26T17:52:37.180Z,6.76
2024-02-26T17:55:40.947Z,6.48
2024-02-26T17:58:43.847Z,6.54
2024-02-26T18:01:46.480Z,6.74
2024-02-26T18:04:48.754Z,6.68
2024-02-26T18:07:52.407Z,6.49
2024-02-26T18:10:54.715Z,6.81
2024-02-26T18:13:58.331Z,6.51
2024-02-26T18:17:00.598Z,6.75
2024-02-26T18:20:05.945Z,6.71
2024-02-26T18:23:08.247Z,6.72
2024-02-26T18:26:11.669Z,6.82
2024-02-26T18:29:14.149Z,6.81
2024-02-26T18:32:19.827Z,7.09
2024-02-26T18:35:21.903Z,6.84
2024-02-26T18:38:25.086Z,6.97
2024-02-26T18:41:27.313Z,6.93
2024-02-26T18:44:29.695Z,7.12
2024-02-26T18:47:32.299Z,7.07
2024-02-26T18:50:35.017Z,6.75
2024-02-26T18:53:37.157Z,7.10
2024-02-26T18:56:40.081Z,6.55
2024-02-26T18:59:44.624Z,6.59
2024-02-26T19:02:47.180Z,6.30
2024-02-26T19:05:49.380Z,6.62
2024-02-26T19:08:52.416Z,6.56
2024-02-26T19:11:56.850Z,6.76
2024-02-26T19:14:59.738Z,6.89
2024-02-26T19:18:02.208Z,6.78
2024-02-26T19:21:05.443Z,6.64
2024-02-26T19:24:08.066Z,6.95
2024-02-26T19:27:10.730Z,6.84
2024-02-26T19:30:13.435Z,6.68
2024-02-26T19:33:17.217Z,6.89
2024-02-26T19:36:20.821Z,6.74
2024-02-26T19:39:23.756Z,6.46
2024-02-26T19:42:27.340Z,6.24
2024-02-26T19:45:30.249Z,6.59
2024-02-26T19:48:32.507Z,6.61
2024-02-26T19:51:37.684Z,6.56
2024-02-26T19:54:41.339Z,6.10
2024-02-26T19:57:44.262Z,6.51
2024-02-26T20:00:46.947Z,6.74
2024-02-26T20:03:50.330Z,6.51
2024-02-26T20:06:52.923Z,6.68
2024-02-26T20:09:55.431Z,7.12
2024-02-26T20:12:59.931Z,7.12
2024-02-26T20:16:02.802Z,6.67
2024-02-26T20:19:10.426Z,6.89
2024-02-26T20:22:14.970Z,7.09
2024-02-26T20:25:17.594Z,6.97
2024-02-26T20:28:20.071Z,7.12
2024-02-26T20:31:22.344Z,6.82
2024-02-26T20:34:24.997Z,7.16
2024-02-26T20:37:29.491Z,6.86
2024-02-26T20:40:32.641Z,6.84
2024-02-26T20:43:35.589Z,6.76
2024-02-26T20:46:44.557Z,6.93
2024-02-26T20:49:47.546Z,7.05
2024-02-26T20:52:51.909Z,7.19
2024-02-26T20:55:54.978Z,7.20
2024-02-26T20:58:57.702Z,7.67
2024-02-26T21:01:59.884Z,7.56
2024-02-26T21:05:02.659Z,7.63
2024-02-26T21:08:11.345Z,7.50
2024-02-26T21:11:19.159Z,7.71
2024-02-26T21:14:21.598Z,6.96
2024-02-26T21:17:23.998Z,6.54
2024-02-26T21:20:28.983Z,6.84
2024-02-26T21:23:33.300Z,6.92
2024-02-26T21:26:35.492Z,6.78
2024-02-26T21:29:39.426Z,6.85
2024-02-26T21:32:42.072Z,6.49
2024-02-26T21:35:45.115Z,6.35
2024-02-26T21:38:50.707Z,6.37
2024-02-26T21:41:54.347Z,6.51
2024-02-26T21:44:56.585Z,6.67
2024-02-26T21:47:59.296Z,6.88
2024-02-26T21:51:05.510Z,6.82
2024-02-26T21:54:07.912Z,6.65
2024-02-26T21:57:10.095Z,6.71
2024-02-26T22:00:13.154Z,5.97
2024-02-26T22:03:15.506Z,5.65
2024-02-26T22:06:18.285Z,6.75
2024-02-26T22:09:21.402Z,6.55
2024-02-26T22:12:24.023Z,6.11
2024-02-26T22:15:27.005Z,5.74
2024-02-26T22:18:29.784Z,6.34
2024-02-26T22:21:35.921Z,6.72
2024-02-26T22:24:38.920Z,6.35
2024-02-26T22:27:41.205Z,6.07
2024-02-26T22:30:43.838Z,6.84
2024-02-26T22:33:46.841Z,7.50
2024-02-26T22:36:50.732Z,7.85
2024-02-26T22:39:53.028Z,7.74
2024-02-26T22:42:57.078Z,8.06
2024-02-26T22:45:59.349Z,7.64
2024-02-26T22:49:02.239Z,8.09
2024-02-26T22:52:04.772Z,7.88
2024-02-26T22:55:08.524Z,7.51
2024-02-26T22:58:10.746Z,7.33
2024-02-26T23:01:13.659Z,7.60
2024-02-26T23:04:16.483Z,7.47
2024-02-26T23:07:19.642Z,7.37
2024-02-26T23:10:22.412Z,7.70
2024-02-26T23:13:25.429Z,7.56
2024-02-26T23:16:29.762Z,7.43
2024-02-26T23:19:35.302Z,7.39
2024-02-26T23:22:38.579Z,7.46
2024-02-26T23:25:41.068Z,7.12
2024-02-26T23:28:43.625Z,7.13
2024-02-26T23:31:46.419Z,7.24
2024-02-26T23:34:49.657Z,7.27
2024-02-26T23:37:52.360Z,6.85
2024-02-26T23:40:54.534Z,7.10
2024-02-26T23:43:57.203Z,7.29
2024-02-26T23:46:59.712Z,7.10
2024-02-26T23:50:02.379Z,7.74
2024-02-26T23:53:05.542Z,7.34
2024-02-26T23:56:08.160Z,8.80
2024-02-26T23:59:10.760Z,8.43
